sensor_id;sensor_type;location;lat;lon;timestamp;pressure;altitude;pressure_sealevel;temperature;humidity
72116;BME280;59991;52.140;5.428;2023-03-18T00:00:16;100764.38;;;11.86;76.37
72116;BME280;59991;52.140;5.428;2023-03-18T00:00:49;100767.13;;;11.89;76.44
72116;BME280;59991;52.140;5.428;2023-03-18T00:01:21;100769.06;;;11.89;76.65
72116;BME280;59991;52.140;5.428;2023-03-18T00:01:52;100765.16;;;11.86;76.24
72116;BME280;59991;52.140;5.428;2023-03-18T00:02:25;100766.72;;;11.84;76.89
72116;BME280;59991;52.140;5.428;2023-03-18T00:02:57;100769.84;;;11.86;76.73
72116;BME280;59991;52.140;5.428;2023-03-18T00:03:33;100776.88;;;11.87;76.43
72116;BME280;59991;52.140;5.428;2023-03-18T00:04:06;100774.13;;;11.87;76.48
72116;BME280;59991;52.140;5.428;2023-03-18T00:04:39;100772.56;;;11.86;77.28
72116;BME280;59991;52.140;5.428;2023-03-18T00:05:11;100771.38;;;11.83;77.25
72116;BME280;59991;52.140;5.428;2023-03-18T00:05:43;100765.13;;;11.83;76.60
72116;BME280;59991;52.140;5.428;2023-03-18T00:06:16;100780.38;;;11.84;77.25
72116;BME280;59991;52.140;5.428;2023-03-18T00:06:48;100779.59;;;11.83;77.01
72116;BME280;59991;52.140;5.428;2023-03-18T00:07:20;100776.84;;;11.83;77.22
72116;BME280;59991;52.140;5.428;2023-03-18T00:07:52;100790.50;;;11.83;76.85
72116;BME280;59991;52.140;5.428;2023-03-18T00:08:24;100781.53;;;11.83;77.00
72116;BME280;59991;52.140;5.428;2023-03-18T00:08:55;100785.44;;;11.82;76.98
72116;BME280;59991;52.140;5.428;2023-03-18T00:09:28;100781.13;;;11.81;77.68
72116;BME280;59991;52.140;5.428;2023-03-18T00:09:59;100777.59;;;11.76;77.28
72116;BME280;59991;52.140;5.428;2023-03-18T00:10:32;100792.44;;;11.79;77.48
72116;BME280;59991;52.140;5.428;2023-03-18T00:11:06;100788.16;;;11.78;77.49
72116;BME280;59991;52.140;5.428;2023-03-18T00:11:39;100787.38;;;11.77;77.77
72116;BME280;59991;52.140;5.428;2023-03-18T00:12:10;100784.59;;;11.74;77.92
72116;BME280;59991;52.140;5.428;2023-03-18T00:12:42;100786.94;;;11.75;77.81
72116;BME280;59991;52.140;5.428;2023-03-18T00:13:14;100788.88;;;11.75;77.64
72116;BME280;59991;52.140;5.428;2023-03-18T00:13:46;100791.63;;;11.75;78.07
72116;BME280;59991;52.140;5.428;2023-03-18T00:14:19;100794.75;;;11.73;77.65
72116;BME280;59991;52.140;5.428;2023-03-18T00:14:50;100784.22;;;11.72;77.87
72116;BME280;59991;52.140;5.428;2023-03-18T00:15:22;100784.59;;;11.70;77.58
72116;BME280;59991;52.140;5.428;2023-03-18T00:15:53;100792.81;;;11.70;78.19
72116;BME280;59991;52.140;5.428;2023-03-18T00:16:25;100792.00;;;11.70;77.51
72116;BME280;59991;52.140;5.428;2023-03-18T00:16:57;100802.94;;;11.70;78.20
72116;BME280;59991;52.140;5.428;2023-03-18T00:17:28;100788.50;;;11.69;78.13
72116;BME280;59991;52.140;5.428;2023-03-18T00:18:00;100785.75;;;11.66;78.00
72116;BME280;59991;52.140;5.428;2023-03-18T00:18:32;100792.00;;;11.66;77.88
72116;BME280;59991;52.140;5.428;2023-03-18T00:19:04;100798.25;;;11.67;78.05
72116;BME280;59991;52.140;5.428;2023-03-18T00:19:37;100799.78;;;11.64;78.07
72116;BME280;59991;52.140;5.428;2023-03-18T00:20:10;100798.63;;;11.65;78.14
72116;BME280;59991;52.140;5.428;2023-03-18T00:20:43;100800.56;;;11.65;78.16
72116;BME280;59991;52.140;5.428;2023-03-18T00:21:15;100799.41;;;11.62;77.86
72116;BME280;59991;52.140;5.428;2023-03-18T00:21:47;100791.97;;;11.59;77.51
72116;BME280;59991;52.140;5.428;2023-03-18T00:22:18;100791.97;;;11.59;77.79
72116;BME280;59991;52.140;5.428;2023-03-18T00:22:49;100793.16;;;11.62;78.11
72116;BME280;59991;52.140;5.428;2023-03-18T00:23:21;100799.00;;;11.60;77.77
72116;BME280;59991;52.140;5.428;2023-03-18T00:23:53;100790.41;;;11.58;77.61
72116;BME280;59991;52.140;5.428;2023-03-18T00:24:27;100793.91;;;11.59;77.98
72116;BME280;59991;52.140;5.428;2023-03-18T00:24:59;100792.34;;;11.58;77.69
72116;BME280;59991;52.140;5.428;2023-03-18T00:25:31;100791.97;;;11.59;78.08
72116;BME280;59991;52.140;5.428;2023-03-18T00:26:03;100803.28;;;11.58;78.31
72116;BME280;59991;52.140;5.428;2023-03-18T00:26:35;100798.19;;;11.56;78.13
72116;BME280;59991;52.140;5.428;2023-03-18T00:27:07;100799.34;;;11.55;78.23
72116;BME280;59991;52.140;5.428;2023-03-18T00:27:39;100802.50;;;11.54;78.15
72116;BME280;59991;52.140;5.428;2023-03-18T00:28:11;100796.63;;;11.52;78.08
72116;BME280;59991;52.140;5.428;2023-03-18T00:28:42;100800.16;;;11.52;78.18
72116;BME280;59991;52.140;5.428;2023-03-18T00:29:14;100795.06;;;11.51;78.40
72116;BME280;59991;52.140;5.428;2023-03-18T00:29:45;100798.19;;;11.49;78.59
72116;BME280;59991;52.140;5.428;2023-03-18T00:30:17;100798.56;;;11.48;78.63
72116;BME280;59991;52.140;5.428;2023-03-18T00:30:49;100805.19;;;11.47;79.07
72116;BME280;59991;52.140;5.428;2023-03-18T00:31:22;100798.53;;;11.44;78.25
72116;BME280;59991;52.140;5.428;2023-03-18T00:31:54;100796.97;;;11.43;78.39
72116;BME280;59991;52.140;5.428;2023-03-18T00:32:26;100795.81;;;11.44;78.83
72116;BME280;59991;52.140;5.428;2023-03-18T00:32:58;100801.28;;;11.44;78.82
72116;BME280;59991;52.140;5.428;2023-03-18T00:33:30;100794.25;;;11.43;78.40
72116;BME280;59991;52.140;5.428;2023-03-18T00:34:01;100795.41;;;11.42;78.16
72116;BME280;59991;52.140;5.428;2023-03-18T00:34:33;100799.72;;;11.43;78.29
72116;BME280;59991;52.140;5.428;2023-03-18T00:35:05;100795.41;;;11.42;77.82
72116;BME280;59991;52.140;5.428;2023-03-18T00:35:37;100798.13;;;11.42;78.19
72116;BME280;59991;52.140;5.428;2023-03-18T00:36:09;100797.75;;;11.43;78.27
72116;BME280;59991;52.140;5.428;2023-03-18T00:36:44;100795.41;;;11.42;78.19
72116;BME280;59991;52.140;5.428;2023-03-18T00:37:16;100793.84;;;11.41;78.08
72116;BME280;59991;52.140;5.428;2023-03-18T00:38:00;100798.91;;;11.39;78.14
72116;BME280;59991;52.140;5.428;2023-03-18T00:38:34;100792.28;;;11.40;78.04
72116;BME280;59991;52.140;5.428;2023-03-18T00:39:06;100797.75;;;11.40;78.38
72116;BME280;59991;52.140;5.428;2023-03-18T00:39:39;100792.25;;;11.36;78.32
72116;BME280;59991;52.140;5.428;2023-03-18T00:40:14;100796.94;;;11.36;78.22
72116;BME280;59991;52.140;5.428;2023-03-18T00:40:51;100798.50;;;11.37;78.62
72116;BME280;59991;52.140;5.428;2023-03-18T00:41:41;100803.19;;;11.36;78.47
72116;BME280;59991;52.140;5.428;2023-03-18T00:42:12;100800.44;;;11.33;78.71
72116;BME280;59991;52.140;5.428;2023-03-18T00:42:45;100807.06;;;11.32;78.50
72116;BME280;59991;52.140;5.428;2023-03-18T00:43:29;100806.28;;;11.31;78.90
72116;BME280;59991;52.140;5.428;2023-03-18T00:44:04;100806.69;;;11.30;78.77
72116;BME280;59991;52.140;5.428;2023-03-18T00:44:36;100808.63;;;11.29;78.73
72116;BME280;59991;52.140;5.428;2023-03-18T00:45:09;100811.34;;;11.29;78.38
72116;BME280;59991;52.140;5.428;2023-03-18T00:45:42;100802.72;;;11.24;79.54
72116;BME280;59991;52.140;5.428;2023-03-18T00:46:28;100814.84;;;11.26;79.19
72116;BME280;59991;52.140;5.428;2023-03-18T00:47:00;100808.59;;;11.26;79.26
72116;BME280;59991;52.140;5.428;2023-03-18T00:47:32;100809.75;;;11.25;78.80
72116;BME280;59991;52.140;5.428;2023-03-18T00:48:05;100808.97;;;11.24;79.61
72116;BME280;59991;52.140;5.428;2023-03-18T00:48:37;100810.13;;;11.23;79.50
72116;BME280;59991;52.140;5.428;2023-03-18T00:49:09;100812.09;;;11.23;79.74
72116;BME280;59991;52.140;5.428;2023-03-18T00:49:41;100808.16;;;11.20;79.82
72116;BME280;59991;52.140;5.428;2023-03-18T00:50:12;100813.25;;;11.22;79.93
72116;BME280;59991;52.140;5.428;2023-03-18T00:50:44;100812.06;;;11.19;79.61
72116;BME280;59991;52.140;5.428;2023-03-18T00:51:17;100813.63;;;11.20;80.24
72116;BME280;59991;52.140;5.428;2023-03-18T00:51:50;100815.56;;;11.20;79.51
72116;BME280;59991;52.140;5.428;2023-03-18T00:52:22;100805.03;;;11.18;80.07
72116;BME280;59991;52.140;5.428;2023-03-18T00:52:53;100811.66;;;11.17;80.00
72116;BME280;59991;52.140;5.428;2023-03-18T00:53:25;100801.16;;;11.16;79.78
72116;BME280;59991;52.140;5.428;2023-03-18T00:53:58;100805.81;;;11.19;80.05
72116;BME280;59991;52.140;5.428;2023-03-18T00:54:30;100796.06;;;11.14;79.53
72116;BME280;59991;52.140;5.428;2023-03-18T00:55:02;100806.59;;;11.19;79.54
72116;BME280;59991;52.140;5.428;2023-03-18T00:55:33;100800.75;;;11.17;79.47
72116;BME280;59991;52.140;5.428;2023-03-18T00:56:06;100800.34;;;11.19;79.64
72116;BME280;59991;52.140;5.428;2023-03-18T00:56:38;100796.06;;;11.18;79.62
72116;BME280;59991;52.140;5.428;2023-03-18T00:57:09;100794.13;;;11.18;79.08
72116;BME280;59991;52.140;5.428;2023-03-18T00:57:41;100791.00;;;11.16;79.65
72116;BME280;59991;52.140;5.428;2023-03-18T00:58:12;100793.72;;;11.16;79.60
72116;BME280;59991;52.140;5.428;2023-03-18T00:58:45;100790.22;;;11.16;79.50
72116;BME280;59991;52.140;5.428;2023-03-18T00:59:17;100795.69;;;11.16;79.49
72116;BME280;59991;52.140;5.428;2023-03-18T00:59:49;100792.97;;;11.16;80.36
72116;BME280;59991;52.140;5.428;2023-03-18T01:00:20;100789.44;;;11.15;80.37
72116;BME280;59991;52.140;5.428;2023-03-18T01:00:52;100788.66;;;11.15;79.90
72116;BME280;59991;52.140;5.428;2023-03-18T01:01:24;100791.78;;;11.17;80.47
72116;BME280;59991;52.140;5.428;2023-03-18T01:01:56;100786.72;;;11.15;80.80
72116;BME280;59991;52.140;5.428;2023-03-18T01:02:28;100797.22;;;11.17;81.35
72116;BME280;59991;52.140;5.428;2023-03-18T01:03:01;100789.84;;;11.14;81.49
72116;BME280;59991;52.140;5.428;2023-03-18T01:03:33;100803.47;;;11.14;81.58
72116;BME280;59991;52.140;5.428;2023-03-18T01:04:05;100805.41;;;11.13;81.44
72116;BME280;59991;52.140;5.428;2023-03-18T01:04:36;100797.22;;;11.10;81.05
72116;BME280;59991;52.140;5.428;2023-03-18T01:05:11;100792.16;;;11.12;81.20
72116;BME280;59991;52.140;5.428;2023-03-18T01:05:43;100792.16;;;11.12;81.13
72116;BME280;59991;52.140;5.428;2023-03-18T01:06:24;100793.72;;;11.13;81.56
72116;BME280;59991;52.140;5.428;2023-03-18T01:06:56;100796.81;;;11.11;81.11
72116;BME280;59991;52.140;5.428;2023-03-18T01:07:28;100792.16;;;11.12;80.28
72116;BME280;59991;52.140;5.428;2023-03-18T01:08:00;100797.63;;;11.12;80.60
72116;BME280;59991;52.140;5.428;2023-03-18T01:08:33;100788.25;;;11.09;80.53
72116;BME280;59991;52.140;5.428;2023-03-18T01:09:06;100800.72;;;11.10;80.35
72116;BME280;59991;52.140;5.428;2023-03-18T01:09:39;100792.53;;;11.10;80.21
72116;BME280;59991;52.140;5.428;2023-03-18T01:10:11;100800.72;;;11.10;80.37
72116;BME280;59991;52.140;5.428;2023-03-18T01:10:44;100789.03;;;11.10;80.24
72116;BME280;59991;52.140;5.428;2023-03-18T01:11:16;100797.22;;;11.10;80.53
72116;BME280;59991;52.140;5.428;2023-03-18T01:11:48;100794.88;;;11.12;80.57
72116;BME280;59991;52.140;5.428;2023-03-18T01:12:20;100786.28;;;11.10;81.29
72116;BME280;59991;52.140;5.428;2023-03-18T01:12:52;100789.81;;;11.10;81.05
72116;BME280;59991;52.140;5.428;2023-03-18T01:13:26;100792.13;;;11.08;81.05
72116;BME280;59991;52.140;5.428;2023-03-18T01:13:58;100797.22;;;11.10;80.10
72116;BME280;59991;52.140;5.428;2023-03-18T01:14:30;100794.84;;;11.08;80.03
72116;BME280;59991;52.140;5.428;2023-03-18T01:15:01;100799.16;;;11.09;79.84
72116;BME280;59991;52.140;5.428;2023-03-18T01:15:35;100796.03;;;11.07;80.83
72116;BME280;59991;52.140;5.428;2023-03-18T01:16:08;100797.19;;;11.06;80.37
72116;BME280;59991;52.140;5.428;2023-03-18T01:16:39;100794.03;;;11.04;80.38
72116;BME280;59991;52.140;5.428;2023-03-18T01:17:11;100794.44;;;11.06;80.04
72116;BME280;59991;52.140;5.428;2023-03-18T01:17:44;100785.06;;;11.03;80.36
72116;BME280;59991;52.140;5.428;2023-03-18T01:18:16;100794.44;;;11.06;80.83
72116;BME280;59991;52.140;5.428;2023-03-18T01:18:48;100797.97;;;11.06;81.15
72116;BME280;59991;52.140;5.428;2023-03-18T01:19:19;100796.41;;;11.05;81.46
72116;BME280;59991;52.140;5.428;2023-03-18T01:19:51;100790.53;;;11.03;80.89
72116;BME280;59991;52.140;5.428;2023-03-18T01:20:22;100794.84;;;11.04;80.64
72116;BME280;59991;52.140;5.428;2023-03-18T01:20:55;100801.06;;;11.05;80.65
72116;BME280;59991;52.140;5.428;2023-03-18T01:21:27;100799.50;;;11.04;81.18
72116;BME280;59991;52.140;5.428;2023-03-18T01:21:59;100801.44;;;11.03;80.45
72116;BME280;59991;52.140;5.428;2023-03-18T01:22:31;100797.56;;;11.04;80.60
72116;BME280;59991;52.140;5.428;2023-03-18T01:23:04;100791.69;;;11.02;80.20
72116;BME280;59991;52.140;5.428;2023-03-18T01:23:36;100801.06;;;11.05;80.52
72116;BME280;59991;52.140;5.428;2023-03-18T01:24:08;100792.84;;;11.01;80.15
72116;BME280;59991;52.140;5.428;2023-03-18T01:24:40;100794.44;;;11.02;80.78
72116;BME280;59991;52.140;5.428;2023-03-18T01:25:13;100801.44;;;11.03;80.64
72116;BME280;59991;52.140;5.428;2023-03-18T01:25:46;100806.53;;;11.05;81.02
72116;BME280;59991;52.140;5.428;2023-03-18T01:26:18;100805.34;;;11.02;82.02
72116;BME280;59991;52.140;5.428;2023-03-18T01:26:49;100801.03;;;11.01;82.33
72116;BME280;59991;52.140;5.428;2023-03-18T01:27:20;100802.97;;;10.97;82.50
72116;BME280;59991;52.140;5.428;2023-03-18T01:27:52;100806.09;;;10.99;82.07
72116;BME280;59991;52.140;5.428;2023-03-18T01:28:24;100801.03;;;10.98;81.92
72116;BME280;59991;52.140;5.428;2023-03-18T01:28:57;100800.22;;;10.97;82.27
72116;BME280;59991;52.140;5.428;2023-03-18T01:29:29;100801.81;;;10.98;82.48
72116;BME280;59991;52.140;5.428;2023-03-18T01:30:02;100804.53;;;10.98;82.68
72116;BME280;59991;52.140;5.428;2023-03-18T01:30:34;100800.66;;;10.96;82.68
72116;BME280;59991;52.140;5.428;2023-03-18T01:31:05;100801.03;;;10.98;82.85
72116;BME280;59991;52.140;5.428;2023-03-18T01:31:38;100808.41;;;10.97;82.94
72116;BME280;59991;52.140;5.428;2023-03-18T01:32:09;100806.09;;;10.96;82.95
72116;BME280;59991;52.140;5.428;2023-03-18T01:32:41;100808.03;;;10.95;82.96
72116;BME280;59991;52.140;5.428;2023-03-18T01:33:14;100799.44;;;10.93;82.86
72116;BME280;59991;52.140;5.428;2023-03-18T01:33:45;100805.69;;;10.94;82.32
72116;BME280;59991;52.140;5.428;2023-03-18T01:34:18;100801.41;;;10.93;82.14
72116;BME280;59991;52.140;5.428;2023-03-18T01:34:49;100804.91;;;10.93;82.08
72116;BME280;59991;52.140;5.428;2023-03-18T01:35:21;100806.84;;;10.93;81.70
72116;BME280;59991;52.140;5.428;2023-03-18T01:35:54;100806.09;;;10.96;82.01
72116;BME280;59991;52.140;5.428;2023-03-18T01:36:26;100799.84;;;10.92;81.93
72116;BME280;59991;52.140;5.428;2023-03-18T01:36:58;100810.78;;;10.95;82.50
72116;BME280;59991;52.140;5.428;2023-03-18T01:37:30;100798.25;;;10.91;81.50
72116;BME280;59991;52.140;5.428;2023-03-18T01:38:03;100802.59;;;10.95;82.01
72116;BME280;59991;52.140;5.428;2023-03-18T01:38:36;100810.78;;;10.95;81.92
72116;BME280;59991;52.140;5.428;2023-03-18T01:39:08;100809.22;;;10.94;81.94
72116;BME280;59991;52.140;5.428;2023-03-18T01:39:40;100800.63;;;10.92;82.32
72116;BME280;59991;52.140;5.428;2023-03-18T01:40:13;100797.47;;;10.90;82.23
72116;BME280;59991;52.140;5.428;2023-03-18T01:40:45;100808.81;;;10.92;82.14
72116;BME280;59991;52.140;5.428;2023-03-18T01:41:16;100800.63;;;10.92;82.19
72116;BME280;59991;52.140;5.428;2023-03-18T01:41:49;100802.97;;;10.94;82.83
72116;BME280;59991;52.140;5.428;2023-03-18T01:42:21;100796.72;;;10.93;82.51
72116;BME280;59991;52.140;5.428;2023-03-18T01:42:57;100801.41;;;10.93;82.76
72116;BME280;59991;52.140;5.428;2023-03-18T01:43:32;100803.72;;;10.91;82.37
72116;BME280;59991;52.140;5.428;2023-03-18T01:44:11;100804.91;;;10.93;82.15
72116;BME280;59991;52.140;5.428;2023-03-18T01:44:44;100800.63;;;10.92;82.35
72116;BME280;59991;52.140;5.428;2023-03-18T01:45:23;100795.53;;;10.91;82.37
72116;BME280;59991;52.140;5.428;2023-03-18T01:45:58;100806.47;;;10.94;81.85
72116;BME280;59991;52.140;5.428;2023-03-18T01:46:36;100803.75;;;10.94;82.33
72116;BME280;59991;52.140;5.428;2023-03-18T01:47:08;100802.97;;;10.94;82.54
72116;BME280;59991;52.140;5.428;2023-03-18T01:47:41;100793.97;;;10.90;82.05
72116;BME280;59991;52.140;5.428;2023-03-18T01:48:16;100807.63;;;10.93;82.49
72116;BME280;59991;52.140;5.428;2023-03-18T01:48:49;100804.91;;;10.93;82.37
72116;BME280;59991;52.140;5.428;2023-03-18T01:49:27;100805.28;;;10.92;82.66
72116;BME280;59991;52.140;5.428;2023-03-18T01:49:59;100805.28;;;10.92;83.08
72116;BME280;59991;52.140;5.428;2023-03-18T01:50:32;100802.94;;;10.90;82.95
72116;BME280;59991;52.140;5.428;2023-03-18T01:51:07;100807.22;;;10.91;82.91
72116;BME280;59991;52.140;5.428;2023-03-18T01:51:47;100805.66;;;10.90;83.52
72116;BME280;59991;52.140;5.428;2023-03-18T01:52:22;100803.69;;;10.87;83.62
72116;BME280;59991;52.140;5.428;2023-03-18T01:52:58;100799.81;;;10.88;83.80
72116;BME280;59991;52.140;5.428;2023-03-18T01:53:39;100805.25;;;10.88;83.35
72116;BME280;59991;52.140;5.428;2023-03-18T01:54:12;100806.78;;;10.86;83.42
72116;BME280;59991;52.140;5.428;2023-03-18T01:54:54;100796.66;;;10.86;83.61
72116;BME280;59991;52.140;5.428;2023-03-18T01:55:30;100798.63;;;10.86;83.34
72116;BME280;59991;52.140;5.428;2023-03-18T01:56:02;100800.56;;;10.85;82.59
72116;BME280;59991;52.140;5.428;2023-03-18T01:56:35;100796.25;;;10.84;82.92
72116;BME280;59991;52.140;5.428;2023-03-18T01:57:08;100797.41;;;10.83;82.87
72116;BME280;59991;52.140;5.428;2023-03-18T01:57:42;100799.41;;;10.86;82.95
72116;BME280;59991;52.140;5.428;2023-03-18T01:58:25;100800.56;;;10.85;83.35
72116;BME280;59991;52.140;5.428;2023-03-18T01:58:58;100800.56;;;10.85;82.54
72116;BME280;59991;52.140;5.428;2023-03-18T01:59:32;100800.56;;;10.85;82.88
72116;BME280;59991;52.140;5.428;2023-03-18T02:00:08;100800.94;;;10.84;83.75
72116;BME280;59991;52.140;5.428;2023-03-18T02:00:44;100797.81;;;10.85;83.17
72116;BME280;59991;52.140;5.428;2023-03-18T02:01:40;100806.00;;;10.85;82.58
72116;BME280;59991;52.140;5.428;2023-03-18T02:02:15;100808.34;;;10.83;82.99
72116;BME280;59991;52.140;5.428;2023-03-18T02:02:48;100806.00;;;10.85;83.33
72116;BME280;59991;52.140;5.428;2023-03-18T02:03:20;100807.56;;;10.83;83.30
72116;BME280;59991;52.140;5.428;2023-03-18T02:03:52;100802.09;;;10.83;83.57
72116;BME280;59991;52.140;5.428;2023-03-18T02:04:29;100811.06;;;10.83;83.64
72116;BME280;59991;52.140;5.428;2023-03-18T02:05:03;100809.50;;;10.82;82.98
72116;BME280;59991;52.140;5.428;2023-03-18T02:05:36;100807.13;;;10.81;82.72
72116;BME280;59991;52.140;5.428;2023-03-18T02:06:08;100808.72;;;10.82;82.70
72116;BME280;59991;52.140;5.428;2023-03-18T02:06:40;100806.34;;;10.80;83.28
72116;BME280;59991;52.140;5.428;2023-03-18T02:07:15;100802.84;;;10.80;83.33
72116;BME280;59991;52.140;5.428;2023-03-18T02:07:47;100807.19;;;10.84;84.10
72116;BME280;59991;52.140;5.428;2023-03-18T02:08:18;100801.69;;;10.81;84.40
72116;BME280;59991;52.140;5.428;2023-03-18T02:08:50;100805.97;;;10.82;84.14
72116;BME280;59991;52.140;5.428;2023-03-18T02:09:22;100799.34;;;10.79;84.06
72116;BME280;59991;52.140;5.428;2023-03-18T02:09:56;100807.94;;;10.81;83.91
72116;BME280;59991;52.140;5.428;2023-03-18T02:10:30;100807.94;;;10.81;83.96
72116;BME280;59991;52.140;5.428;2023-03-18T02:11:02;100805.97;;;10.82;84.11
72116;BME280;59991;52.140;5.428;2023-03-18T02:11:37;100804.41;;;10.81;83.80
72116;BME280;59991;52.140;5.428;2023-03-18T02:12:11;100809.09;;;10.80;83.79
72116;BME280;59991;52.140;5.428;2023-03-18T02:12:47;100802.47;;;10.81;83.78
72116;BME280;59991;52.140;5.428;2023-03-18T02:13:20;100806.34;;;10.80;82.88
72116;BME280;59991;52.140;5.428;2023-03-18T02:13:51;100799.72;;;10.78;83.52
72116;BME280;59991;52.140;5.428;2023-03-18T02:14:24;100807.94;;;10.81;83.00
72116;BME280;59991;52.140;5.428;2023-03-18T02:14:57;100802.06;;;10.79;82.87
72116;BME280;59991;52.140;5.428;2023-03-18T02:15:30;100806.34;;;10.80;82.77
72116;BME280;59991;52.140;5.428;2023-03-18T02:16:09;100798.19;;;10.80;83.14
72116;BME280;59991;52.140;5.428;2023-03-18T02:16:48;100805.56;;;10.80;83.69
72116;BME280;59991;52.140;5.428;2023-03-18T02:17:25;100811.03;;;10.80;83.41
72116;BME280;59991;52.140;5.428;2023-03-18T02:18:04;100800.91;;;10.77;83.70
72116;BME280;59991;52.140;5.428;2023-03-18T02:18:43;100810.25;;;10.79;83.72
72116;BME280;59991;52.140;5.428;2023-03-18T02:21:35;100815.31;;;10.77;84.03
72116;BME280;59991;52.140;5.428;2023-03-18T02:22:40;100814.91;;;10.75;84.11
72116;BME280;59991;52.140;5.428;2023-03-18T02:25:56;100822.28;;;10.71;84.31
72116;BME280;59991;52.140;5.428;2023-03-18T02:27:31;100816.81;;;10.71;84.39
72116;BME280;59991;52.140;5.428;2023-03-18T02:28:08;100822.28;;;10.71;84.14
72116;BME280;59991;52.140;5.428;2023-03-18T02:28:41;100813.31;;;10.70;84.58
72116;BME280;59991;52.140;5.428;2023-03-18T02:29:16;100823.03;;;10.68;84.83
72116;BME280;59991;52.140;5.428;2023-03-18T02:29:51;100821.88;;;10.69;84.07
72116;BME280;59991;52.140;5.428;2023-03-18T02:30:32;100819.16;;;10.69;84.47
72116;BME280;59991;52.140;5.428;2023-03-18T02:31:09;100816.00;;;10.67;84.69
72116;BME280;59991;52.140;5.428;2023-03-18T02:31:42;100810.16;;;10.65;84.71
72116;BME280;59991;52.140;5.428;2023-03-18T02:32:15;100809.38;;;10.64;84.71
72116;BME280;59991;52.140;5.428;2023-03-18T02:32:49;100817.94;;;10.66;84.57
72116;BME280;59991;52.140;5.428;2023-03-18T02:33:23;100810.53;;;10.63;83.91
72116;BME280;59991;52.140;5.428;2023-03-18T02:33:57;100819.91;;;10.66;84.43
72116;BME280;59991;52.140;5.428;2023-03-18T02:34:30;100810.56;;;10.67;84.89
72116;BME280;59991;52.140;5.428;2023-03-18T02:35:05;100817.94;;;10.66;84.96
72116;BME280;59991;52.140;5.428;2023-03-18T02:35:38;100816.00;;;10.67;84.79
72116;BME280;59991;52.140;5.428;2023-03-18T02:36:21;100816.78;;;10.67;84.37
72116;BME280;59991;52.140;5.428;2023-03-18T02:36:54;100814.44;;;10.66;84.48
72116;BME280;59991;52.140;5.428;2023-03-18T02:37:25;100808.22;;;10.65;84.31
72116;BME280;59991;52.140;5.428;2023-03-18T02:37:57;100808.22;;;10.65;84.18
72116;BME280;59991;52.140;5.428;2023-03-18T02:38:29;100812.13;;;10.68;84.42
72116;BME280;59991;52.140;5.428;2023-03-18T02:39:00;100813.28;;;10.67;84.70
72116;BME280;59991;52.140;5.428;2023-03-18T02:39:32;100816.38;;;10.65;84.90
72116;BME280;59991;52.140;5.428;2023-03-18T02:40:27;100815.97;;;10.63;84.48
72116;BME280;59991;52.140;5.428;2023-03-18T02:40:59;100814.03;;;10.64;84.51
72116;BME280;59991;52.140;5.428;2023-03-18T02:41:34;100821.06;;;10.65;84.58
72116;BME280;59991;52.140;5.428;2023-03-18T02:42:06;100814.44;;;10.66;84.32
72116;BME280;59991;52.140;5.428;2023-03-18T02:42:37;100814.78;;;10.61;84.65
72116;BME280;59991;52.140;5.428;2023-03-18T02:43:22;100813.28;;;10.67;84.04
72116;BME280;59991;52.140;5.428;2023-03-18T02:43:54;100819.91;;;10.66;84.16
72116;BME280;59991;52.140;5.428;2023-03-18T02:44:26;100816.00;;;10.67;84.16
72116;BME280;59991;52.140;5.428;2023-03-18T02:44:58;100818.75;;;10.67;84.58
72116;BME280;59991;52.140;5.428;2023-03-18T02:47:01;100814.84;;;10.68;84.08
72116;BME280;59991;52.140;5.428;2023-03-18T02:47:03;100819.50;;;10.64;84.64
72116;BME280;59991;52.140;5.428;2023-03-18T02:47:41;100818.69;;;10.63;84.74
72116;BME280;59991;52.140;5.428;2023-03-18T02:48:17;100814.41;;;10.62;84.79
72116;BME280;59991;52.140;5.428;2023-03-18T02:48:51;100816.72;;;10.60;84.32
72116;BME280;59991;52.140;5.428;2023-03-18T02:49:24;100823.38;;;10.63;84.88
72116;BME280;59991;52.140;5.428;2023-03-18T02:49:57;100822.19;;;10.60;84.30
72116;BME280;59991;52.140;5.428;2023-03-18T02:50:29;100821.41;;;10.60;84.54
72116;BME280;59991;52.140;5.428;2023-03-18T02:51:02;100828.03;;;10.62;84.92
72116;BME280;59991;52.140;5.428;2023-03-18T02:51:35;100829.19;;;10.61;84.33
72116;BME280;59991;52.140;5.428;2023-03-18T02:52:07;100824.13;;;10.60;84.57
72116;BME280;59991;52.140;5.428;2023-03-18T02:52:38;100825.69;;;10.61;84.71
72116;BME280;59991;52.140;5.428;2023-03-18T02:53:12;100825.31;;;10.62;84.18
72116;BME280;59991;52.140;5.428;2023-03-18T02:53:44;100820.25;;;10.61;84.36
72116;BME280;59991;52.140;5.428;2023-03-18T02:54:24;100822.22;;;10.64;84.54
72116;BME280;59991;52.140;5.428;2023-03-18T02:54:56;100827.66;;;10.64;84.92
72116;BME280;59991;52.140;5.428;2023-03-18T02:55:29;100829.19;;;10.61;84.65
72116;BME280;59991;52.140;5.428;2023-03-18T02:56:01;100821.81;;;10.62;84.83
72116;BME280;59991;52.140;5.428;2023-03-18T02:56:33;100827.25;;;10.62;84.78
72116;BME280;59991;52.140;5.428;2023-03-18T02:57:05;100824.50;;;10.58;84.99
72116;BME280;59991;52.140;5.428;2023-03-18T02:57:36;100824.13;;;10.60;84.82
72116;BME280;59991;52.140;5.428;2023-03-18T02:58:08;100825.69;;;10.61;84.73
72116;BME280;59991;52.140;5.428;2023-03-18T02:58:39;100824.53;;;10.62;84.55
72116;BME280;59991;52.140;5.428;2023-03-18T02:59:11;100818.28;;;10.58;84.31
72116;BME280;59991;52.140;5.428;2023-03-18T02:59:43;100827.63;;;10.60;84.99
72116;BME280;59991;52.140;5.428;2023-03-18T03:00:15;100819.81;;;10.59;84.57
72116;BME280;59991;52.140;5.428;2023-03-18T03:00:46;100822.19;;;10.57;85.14
72116;BME280;59991;52.140;5.428;2023-03-18T03:01:18;100828.41;;;10.61;85.13
72116;BME280;59991;52.140;5.428;2023-03-18T03:01:51;100825.31;;;10.62;84.48